Time;durP1;ratioP1;P1;durP2;ratioP2;P2;SDS_P1;SDS_P2;PMS_P1;PMS_P2;Temp;Humidity;BMP_temperature;BMP_pressure;BME280_temperature;BME280_humidity;BME280_pressure;Samples;Min_cycle;Max_cycle;Signal;HPM_P1;HPM_P2
2023/03/30 00:01:48;;;;;;;2.40;0.50;;;15.40;99.90;;;;;;5113495;28;20739;-62
2023/03/30 00:04:17;;;;;;;1.20;0.50;;;15.40;99.90;;;;;;5114032;28;20427;-61
2023/03/30 00:06:44;;;;;;;3.10;0.50;;;15.40;99.90;;;;;;5114135;28;20468;-61
2023/03/30 00:09:13;;;;;;;1.50;0.50;;;15.40;99.90;;;;;;5114321;28;20424;-60
2023/03/30 00:11:42;;;;;;;3.20;0.50;;;15.40;99.90;;;;;;5114711;28;20424;-61
2023/03/30 00:14:09;;;;;;;2.10;0.40;;;15.50;99.90;;;;;;5114917;28;20728;-62
2023/03/30 00:16:36;;;;;;;3.30;0.50;;;15.50;99.90;;;;;;5118241;28;20423;-61
2023/03/30 00:19:03;;;;;;;1.60;0.40;;;15.60;99.90;;;;;;5118787;28;20408;-62
2023/03/30 00:21:30;;;;;;;2.60;0.50;;;15.60;99.90;;;;;;5118450;28;20416;-61
2023/03/30 00:23:57;;;;;;;2.00;0.40;;;15.60;99.90;;;;;;5118727;28;20857;-61
2023/03/30 00:26:26;;;;;;;3.00;0.50;;;15.60;99.90;;;;;;5118003;28;20494;-61
2023/03/30 00:28:53;;;;;;;2.72;0.50;;;15.60;99.90;;;;;;5118009;28;21052;-62
2023/03/30 00:31:20;;;;;;;2.45;0.50;;;15.60;99.90;;;;;;5118649;28;20435;-62
2023/03/30 00:33:47;;;;;;;2.28;0.40;;;15.60;99.90;;;;;;5118071;28;20412;-61
2023/03/30 00:36:15;;;;;;;2.33;0.50;;;15.60;99.90;;;;;;5118322;28;20423;-62
2023/03/30 00:38:42;;;;;;;1.77;0.70;;;15.60;99.90;;;;;;5115733;28;20429;-60
2023/03/30 00:41:10;;;;;;;1.67;0.50;;;15.50;99.90;;;;;;5108083;28;20479;-61
2023/03/30 00:43:57;;;;;;;1.27;0.50;;;15.50;99.90;;;;;;5096884;28;20440;-61
2023/03/30 00:46:24;;;;;;;3.28;0.60;;;15.50;99.90;;;;;;5096477;28;20479;-61
2023/03/30 00:48:52;;;;;;;2.57;0.60;;;15.50;99.90;;;;;;5095645;28;20463;-61
2023/03/30 00:51:19;;;;;;;1.75;0.40;;;15.40;99.90;;;;;;5096364;28;20849;-61
2023/03/30 00:53:49;;;;;;;2.22;0.60;;;15.40;99.90;;;;;;5096141;28;20788;-60
2023/03/30 00:56:21;;;;;;;3.40;0.50;;;15.30;99.90;;;;;;5095643;28;20454;-62
2023/03/30 00:58:50;;;;;;;2.00;0.40;;;15.30;1.00;;;;;;5105363;28;20532;-61
2023/03/30 01:01:24;;;;;;;2.00;0.40;;;15.30;1.00;;;;;;5118320;28;20514;-61
2023/03/30 01:03:52;;;;;;;1.10;0.50;;;15.20;1.00;;;;;;5117801;28;20755;-61
2023/03/30 01:06:23;;;;;;;3.75;0.55;;;15.20;1.00;;;;;;5117093;28;20497;-62
2023/03/30 01:08:51;;;;;;;2.75;0.50;;;15.20;1.00;;;;;;5117106;28;20870;-62
2023/03/30 01:11:18;;;;;;;2.70;0.52;;;15.20;1.00;;;;;;5115125;28;20432;-62
2023/03/30 01:13:49;;;;;;;3.95;0.50;;;15.20;1.00;;;;;;5117035;28;20507;-62
2023/03/30 01:16:27;;;;;;;3.50;0.52;;;15.20;1.00;;;;;;5116496;28;20420;-61
2023/03/30 01:19:03;;;;;;;2.25;0.50;;;15.10;1.00;;;;;;5110146;28;20874;-61
2023/03/30 01:21:58;;;;;;;3.72;0.60;;;15.10;1.00;;;;;;5097120;28;20422;-61
2023/03/30 01:25:09;;;;;;;3.28;0.77;;;15.10;1.00;;;;;;5097010;28;20450;-61
2023/03/30 01:27:56;;;;;;;2.17;0.50;;;15.10;1.00;;;;;;5034441;28;20730;-61
2023/03/30 01:30:37;;;;;;;2.78;0.50;;;15.10;1.00;;;;;;5095492;28;20718;-61
2023/03/30 01:33:40;;;;;;;2.50;0.45;;;15.10;99.90;;;;;;5094335;28;20478;-59
2023/03/30 01:36:34;;;;;;;2.00;0.50;;;15.10;1.00;;;;;;5061189;28;20514;-60
2023/03/30 01:39:26;;;;;;;2.40;0.50;;;15.20;1.00;;;;;;5097678;28;20898;-60
2023/03/30 01:41:59;;;;;;;2.47;0.60;;;15.20;99.90;;;;;;5066547;28;20767;-60
2023/03/30 01:44:34;;;;;;;2.17;0.55;;;15.10;1.00;;;;;;5095670;28;20845;-60
2023/03/30 01:47:07;;;;;;;2.10;0.50;;;15.10;99.90;;;;;;5096293;28;20926;-62
2023/03/30 01:49:41;;;;;;;0.90;0.40;;;15.00;1.00;;;;;;5096540;28;20433;-59
2023/03/30 01:52:16;;;;;;;3.10;0.55;;;14.90;1.00;;;;;;5097020;28;20823;-60
2023/03/30 01:54:49;;;;;;;3.80;0.50;;;14.80;99.90;;;;;;5096560;28;20430;-60
2023/03/30 01:57:21;;;;;;;1.75;0.70;;;14.70;1.00;;;;;;5097069;28;20418;-59
2023/03/30 01:59:55;;;;;;;2.10;0.50;;;14.60;99.90;;;;;;5112544;28;20855;-59
2023/03/30 02:02:24;;;;;;;2.17;0.50;;;14.60;1.00;;;;;;5113795;28;20430;-60
2023/03/30 02:04:56;;;;;;;3.28;0.60;;;14.60;99.90;;;;;;5113949;28;20454;-60
2023/03/30 02:07:28;;;;;;;1.20;0.50;;;14.60;99.90;;;;;;5113942;28;20782;-60
2023/03/30 02:10:01;;;;;;;3.00;0.70;;;14.50;99.90;;;;;;5115394;28;20432;-61
2023/03/30 02:12:30;;;;;;;3.55;0.88;;;14.50;99.90;;;;;;5117298;28;20420;-61
2023/03/30 02:15:01;;;;;;;2.67;0.50;;;14.50;99.90;;;;;;5116322;28;20421;-60
2023/03/30 02:17:30;;;;;;;1.77;0.50;;;14.50;99.90;;;;;;5117283;28;20854;-62
2023/03/30 02:19:59;;;;;;;3.92;0.52;;;14.50;99.90;;;;;;5117049;28;20424;-61
2023/03/30 02:22:29;;;;;;;2.58;0.60;;;14.50;99.90;;;;;;5116553;28;20422;-60
2023/03/30 02:24:59;;;;;;;4.60;0.60;;;14.50;99.90;;;;;;5115728;28;20438;-60
2023/03/30 02:27:27;;;;;;;1.75;0.80;;;14.50;99.90;;;;;;5116053;28;20412;-62
2023/03/30 02:29:55;;;;;;;2.72;0.50;;;14.50;99.90;;;;;;5115782;28;20436;-61
2023/03/30 02:32:26;;;;;;;3.30;0.60;;;14.50;99.90;;;;;;5116198;28;20455;-60
2023/03/30 02:35:12;;;;;;;2.85;0.52;;;14.50;99.90;;;;;;5115388;28;20415;-61
2023/03/30 02:38:06;;;;;;;3.35;0.50;;;14.50;99.90;;;;;;5115335;28;20416;-61
2023/03/30 02:40:43;;;;;;;2.40;0.50;;;14.50;99.90;;;;;;5116560;28;20455;-60
2023/03/30 02:43:25;;;;;;;1.90;0.50;;;14.60;99.90;;;;;;5114875;28;20420;-63
2023/03/30 02:45:59;;;;;;;1.10;0.50;;;14.60;99.90;;;;;;5114990;28;20418;-60
2023/03/30 02:48:41;;;;;;;3.40;0.50;;;14.50;99.90;;;;;;5114730;28;20415;-60
2023/03/30 02:51:25;;;;;;;4.53;0.60;;;14.50;99.90;;;;;;5114639;28;20432;-61
2023/03/30 02:54:00;;;;;;;4.68;0.50;;;14.50;99.90;;;;;;5114058;28;20486;-60
2023/03/30 02:56:36;;;;;;;1.77;0.60;;;14.50;1.00;;;;;;5115129;28;20530;-59
2023/03/30 02:59:06;;;;;;;1.50;0.50;;;14.40;1.00;;;;;;5115741;28;20419;-59
2023/03/30 03:01:37;;;;;;;3.92;0.60;;;14.40;1.00;;;;;;5115872;28;20427;-58
2023/03/30 03:04:06;;;;;;;4.50;0.80;;;14.30;1.00;;;;;;5115118;28;20408;-60
2023/03/30 03:06:34;;;;;;;4.40;0.70;;;14.20;1.00;;;;;;5115485;28;20420;-60
2023/03/30 03:09:02;;;;;;;4.32;0.50;;;14.10;1.00;;;;;;5115379;28;20416;-59
2023/03/30 03:11:30;;;;;;;4.75;0.70;;;13.90;1.00;;;;;;5114926;28;20490;-61
2023/03/30 03:13:58;;;;;;;3.78;0.60;;;13.80;1.00;;;;;;5114566;28;20408;-60
2023/03/30 03:16:25;;;;;;;5.03;0.60;;;13.70;24.40;;;;;;5113846;28;20502;-60
2023/03/30 03:18:52;;;;;;;3.30;0.70;;;13.60;47.40;;;;;;5115760;28;20413;-60
2023/03/30 03:21:19;;;;;;;4.78;0.60;;;13.50;59.80;;;;;;5116191;28;20431;-59
2023/03/30 03:23:47;;;;;;;1.92;0.80;;;13.40;91.80;;;;;;5115077;28;20824;-59
2023/03/30 03:26:14;;;;;;;2.45;0.70;;;13.40;94.30;;;;;;5114297;28;20462;-63
2023/03/30 03:28:43;;;;;;;2.60;0.70;;;13.40;96.70;;;;;;5114528;28;20416;-62
2023/03/30 03:31:11;;;;;;;2.50;0.80;;;13.40;99.30;;;;;;5112980;28;20482;-62
2023/03/30 03:33:38;;;;;;;5.32;0.70;;;13.40;95.40;;;;;;5113087;28;20466;-62
2023/03/30 03:36:05;;;;;;;4.40;1.00;;;13.30;99.90;;;;;;5113783;28;20427;-62
2023/03/30 03:38:33;;;;;;;4.75;0.90;;;13.20;99.90;;;;;;5112666;28;20412;-62
2023/03/30 03:41:00;;;;;;;4.10;0.85;;;13.20;99.90;;;;;;5114721;28;20420;-62
2023/03/30 03:43:27;;;;;;;4.00;0.80;;;13.20;99.90;;;;;;5114765;28;20427;-62
2023/03/30 03:45:57;;;;;;;3.65;0.75;;;13.20;99.90;;;;;;5115358;28;20435;-62
2023/03/30 03:48:25;;;;;;;6.80;1.20;;;13.20;99.90;;;;;;5115609;28;20485;-62
2023/03/30 03:50:53;;;;;;;3.67;0.80;;;13.20;99.90;;;;;;5118038;28;20438;-61
2023/03/30 03:53:21;;;;;;;3.00;0.70;;;13.10;99.90;;;;;;5119034;28;20416;-62
2023/03/30 03:55:48;;;;;;;3.40;0.90;;;13.10;99.90;;;;;;5117167;28;20432;-61
2023/03/30 03:58:16;;;;;;;3.70;0.70;;;13.10;99.90;;;;;;5118787;28;20408;-61
2023/03/30 04:00:44;;;;;;;2.60;0.75;;;13.10;99.90;;;;;;5119389;28;20858;-62
2023/03/30 04:03:12;;;;;;;2.30;0.70;;;13.00;99.90;;;;;;5119149;28;20420;-61
2023/03/30 04:05:40;;;;;;;2.20;0.60;;;13.00;99.90;;;;;;5119117;28;20506;-60
2023/03/30 04:08:09;;;;;;;2.85;0.60;;;13.00;99.90;;;;;;5118879;28;20888;-63
2023/03/30 04:10:37;;;;;;;5.28;0.90;;;13.00;99.90;;;;;;5118225;28;20891;-62
2023/03/30 04:13:05;;;;;;;1.70;0.80;;;13.00;99.90;;;;;;5116635;28;20416;-62
2023/03/30 04:15:32;;;;;;;4.15;0.70;;;13.00;99.90;;;;;;5118694;28;20428;-62
2023/03/30 04:18:00;;;;;;;3.20;0.60;;;13.00;99.90;;;;;;5119144;28;20823;-62
2023/03/30 04:20:29;;;;;;;3.47;0.70;;;13.00;99.90;;;;;;5117516;28;20473;-62
2023/03/30 04:23:00;;;;;;;2.40;0.60;;;13.00;99.90;;;;;;5118174;28;20415;-62
2023/03/30 04:25:28;;;;;;;2.73;0.90;;;13.00;99.90;;;;;;5117725;28;20453;-63
2023/03/30 04:27:55;;;;;;;4.43;0.60;;;13.00;99.90;;;;;;5118097;28;20452;-62
2023/03/30 04:30:23;;;;;;;2.20;1.10;;;13.00;99.90;;;;;;5117597;28;20431;-62
2023/03/30 04:33:01;;;;;;;2.45;0.70;;;13.00;99.90;;;;;;5117745;28;20719;-62
2023/03/30 04:35:31;;;;;;;3.42;0.70;;;13.10;99.90;;;;;;5118419;28;20798;-63
2023/03/30 04:37:59;;;;;;;3.50;0.55;;;13.10;99.90;;;;;;5116708;28;20457;-62
2023/03/30 04:40:26;;;;;;;2.80;0.65;;;13.10;99.90;;;;;;5118670;28;20435;-63
2023/03/30 04:42:53;;;;;;;3.67;0.60;;;13.10;99.90;;;;;;5117880;28;20416;-62
2023/03/30 04:45:20;;;;;;;3.15;0.60;;;13.20;99.90;;;;;;5116689;28;20423;-62
2023/03/30 04:47:48;;;;;;;2.53;0.60;;;13.20;99.90;;;;;;5116734;28;20727;-62
2023/03/30 04:50:15;;;;;;;3.85;0.60;;;13.30;99.90;;;;;;5116553;28;20464;-62
2023/03/30 04:52:44;;;;;;;2.60;0.60;;;13.30;99.90;;;;;;5118221;28;20520;-62
2023/03/30 04:55:11;;;;;;;2.88;0.60;;;13.30;99.90;;;;;;5116016;28;20778;-62
2023/03/30 04:57:39;;;;;;;4.80;0.70;;;13.30;99.90;;;;;;5112082;28;20420;-63
2023/03/30 05:00:08;;;;;;;3.20;0.70;;;13.30;99.90;;;;;;5097301;28;20814;-62
2023/03/30 05:02:35;;;;;;;2.20;0.70;;;13.30;99.90;;;;;;5093794;28;20417;-62
2023/03/30 05:05:03;;;;;;;4.43;0.70;;;13.30;99.90;;;;;;5094231;28;20422;-62
2023/03/30 05:07:30;;;;;;;2.72;0.73;;;13.40;99.90;;;;;;5092924;28;20499;-60
2023/03/30 05:09:58;;;;;;;4.07;0.70;;;13.40;99.90;;;;;;5093223;28;20432;-62
2023/03/30 05:12:26;;;;;;;3.80;0.63;;;13.40;93.30;;;;;;5095545;28;20410;-62
2023/03/30 05:14:53;;;;;;;2.47;0.60;;;13.40;95.00;;;;;;5095161;28;21116;-62
2023/03/30 05:17:20;;;;;;;3.33;0.60;;;13.50;86.30;;;;;;5094740;28;20413;-62
2023/03/30 05:19:47;;;;;;;3.20;0.70;;;13.50;89.50;;;;;;5091373;28;20722;-63
2023/03/30 05:22:15;;;;;;;2.92;0.70;;;13.50;89.00;;;;;;5095844;28;20428;-62
2023/03/30 05:24:43;;;;;;;1.95;0.60;;;13.50;83.80;;;;;;5092985;28;20487;-63
2023/03/30 05:27:12;;;;;;;1.80;0.60;;;13.50;83.80;;;;;;5094376;28;20979;-63
2023/03/30 05:29:39;;;;;;;2.90;0.60;;;13.50;87.00;;;;;;5110709;28;20728;-62
2023/03/30 05:32:07;;;;;;;3.67;0.70;;;13.50;70.50;;;;;;5114105;28;20458;-61
2023/03/30 05:34:34;;;;;;;3.25;0.90;;;13.50;72.20;;;;;;5115621;28;20432;-61
2023/03/30 05:37:01;;;;;;;4.93;0.70;;;13.50;68.70;;;;;;5114394;28;20507;-60
2023/03/30 05:39:28;;;;;;;3.40;0.52;;;13.50;76.20;;;;;;5114496;28;20426;-60
2023/03/30 05:41:55;;;;;;;2.80;0.60;;;13.50;72.80;;;;;;5114549;28;20461;-61
2023/03/30 05:44:24;;;;;;;3.78;0.70;;;13.50;75.20;;;;;;5115295;28;20409;-61
2023/03/30 05:46:51;;;;;;;2.60;0.60;;;13.60;63.80;;;;;;5114404;28;20789;-61
2023/03/30 05:49:19;;;;;;;3.50;0.70;;;13.60;60.30;;;;;;5114960;28;20422;-62
2023/03/30 05:51:49;;;;;;;3.70;0.80;;;13.60;66.60;;;;;;5114157;28;20420;-62
2023/03/30 05:54:16;;;;;;;5.03;0.80;;;13.50;71.10;;;;;;5114437;28;20412;-61
2023/03/30 05:56:43;;;;;;;2.70;0.90;;;13.60;64.20;;;;;;5114107;28;20430;-62
2023/03/30 05:59:11;;;;;;;3.40;0.70;;;13.60;52.20;;;;;;5113962;28;20427;-63
2023/03/30 06:01:40;;;;;;;2.50;0.68;;;13.70;48.20;;;;;;5113833;28;20422;-63
2023/03/30 06:04:07;;;;;;;4.47;0.77;;;13.70;55.90;;;;;;5113018;28;20812;-62
2023/03/30 06:06:35;;;;;;;2.08;0.90;;;13.70;50.70;;;;;;5114529;28;20557;-63
2023/03/30 06:09:03;;;;;;;4.30;0.73;;;13.70;51.80;;;;;;5101528;28;20892;-64
2023/03/30 06:11:30;;;;;;;6.63;1.40;;;13.70;59.20;;;;;;5095028;28;20936;-64
2023/03/30 06:14:01;;;;;;;3.38;0.90;;;13.70;63.00;;;;;;5095148;28;20475;-63
2023/03/30 06:16:30;;;;;;;4.07;0.70;;;13.70;45.00;;;;;;5108502;28;20803;-63
2023/03/30 06:18:59;;;;;;;4.53;0.65;;;13.80;68.10;;;;;;5095202;28;20457;-63
2023/03/30 06:21:26;;;;;;;4.85;0.70;;;13.80;78.80;;;;;;5092887;28;20516;-62
2023/03/30 06:23:53;;;;;;;3.30;0.68;;;13.80;85.20;;;;;;5093901;28;20426;-62
2023/03/30 06:26:20;;;;;;;3.30;0.60;;;13.80;89.70;;;;;;5094282;28;20917;-62
2023/03/30 06:28:47;;;;;;;3.47;1.00;;;13.80;75.40;;;;;;5098205;28;20986;-62
2023/03/30 06:31:16;;;;;;;4.40;0.70;;;13.90;83.30;;;;;;5110015;28;20790;-62
2023/03/30 06:33:43;;;;;;;4.70;0.80;;;13.90;62.30;;;;;;5091316;28;20503;-63
2023/03/30 06:36:14;;;;;;;4.70;0.80;;;14.00;82.70;;;;;;5090928;28;20429;-62
2023/03/30 06:38:42;;;;;;;6.55;0.77;;;14.00;70.60;;;;;;5094081;28;20414;-62
2023/03/30 06:41:11;;;;;;;3.70;0.60;;;14.10;99.90;;;;;;5107372;28;20843;-62
2023/03/30 06:43:41;;;;;;;3.35;0.70;;;14.10;44.80;;;;;;5113385;28;20431;-62
2023/03/30 06:46:10;;;;;;;3.38;1.00;;;14.10;46.00;;;;;;5114553;28;20518;-60
2023/03/30 06:48:37;;;;;;;4.13;0.65;;;14.10;50.30;;;;;;5112219;28;20463;-61
2023/03/30 06:51:05;;;;;;;4.10;0.80;;;14.10;99.90;;;;;;5112498;28;20455;-60
2023/03/30 06:53:34;;;;;;;3.30;0.70;;;14.20;99.90;;;;;;5103115;28;20426;-61
2023/03/30 06:56:01;;;;;;;2.40;0.50;;;14.20;9.60;;;;;;5093394;28;20428;-61
2023/03/30 06:58:30;;;;;;;1.63;0.60;;;14.20;15.10;;;;;;5098306;28;20427;-62
2023/03/30 07:00:57;;;;;;;1.77;0.60;;;14.10;13.00;;;;;;5101152;28;20436;-63
2023/03/30 07:03:25;;;;;;;2.90;0.70;;;14.10;99.90;;;;;;5091991;28;20426;-62
2023/03/30 07:05:52;;;;;;;2.80;0.70;;;14.10;99.90;;;;;;5092939;28;20430;-62
2023/03/30 07:08:21;;;;;;;3.60;0.70;;;14.10;99.90;;;;;;5112127;28;20804;-61
2023/03/30 07:10:50;;;;;;;4.25;0.70;;;14.20;99.90;;;;;;5111081;28;20477;-61
2023/03/30 07:13:17;;;;;;;3.92;0.60;;;14.20;4.00;;;;;;5110175;28;20695;-63
2023/03/30 07:15:45;;;;;;;8.52;0.70;;;14.20;99.90;;;;;;5108882;28;20434;-61
2023/03/30 07:18:12;;;;;;;2.75;0.70;;;14.30;99.90;;;;;;5111038;28;20799;-59
2023/03/30 07:20:39;;;;;;;2.92;0.70;;;14.30;34.40;;;;;;5110870;28;20423;-59
2023/03/30 07:23:07;;;;;;;5.30;0.70;;;14.30;42.50;;;;;;5109196;28;20438;-59
2023/03/30 07:25:34;;;;;;;2.45;0.70;;;14.20;99.90;;;;;;5104024;28;20445;-59
2023/03/30 07:28:05;;;;;;;2.88;0.70;;;13.90;99.90;;;;;;5090194;28;20515;-59
2023/03/30 07:30:32;;;;;;;3.50;0.65;;;13.80;99.90;;;;;;5109817;28;20416;-59
2023/03/30 07:32:59;;;;;;;1.80;0.70;;;13.70;99.90;;;;;;5109127;28;20819;-59
2023/03/30 07:35:27;;;;;;;3.00;0.70;;;13.60;99.90;;;;;;5109632;28;20432;-58
2023/03/30 07:37:54;;;;;;;3.15;0.80;;;13.60;99.90;;;;;;5099920;28;20512;-59
2023/03/30 07:40:21;;;;;;;2.50;0.70;;;13.70;99.90;;;;;;5099674;28;20504;-58
2023/03/30 07:42:49;;;;;;;2.50;0.80;;;13.60;99.90;;;;;;5094216;28;20468;-58
2023/03/30 07:45:18;;;;;;;4.25;0.70;;;13.40;99.90;;;;;;5089981;28;20780;-58
2023/03/30 07:47:48;;;;;;;3.50;0.70;;;13.30;99.90;;;;;;5099746;28;20800;-58
2023/03/30 07:50:15;;;;;;;2.13;0.80;;;13.10;99.90;;;;;;5098885;28;20743;-58
2023/03/30 07:52:43;;;;;;;4.22;0.80;;;13.00;99.90;;;;;;5091338;28;20852;-58
2023/03/30 07:55:10;;;;;;;1.70;0.60;;;13.00;99.90;;;;;;5104877;28;20456;-58
2023/03/30 07:57:37;;;;;;;4.23;2.07;;;13.00;99.90;;;;;;5096369;28;20531;-58
2023/03/30 08:00:07;;;;;;;8.55;5.25;;;13.10;99.90;;;;;;5098542;28;20942;-58
2023/03/30 08:02:35;;;;;;;1.90;0.70;;;13.10;99.90;;;;;;5094515;28;20517;-57
2023/03/30 08:05:02;;;;;;;3.90;1.00;;;13.00;99.90;;;;;;5090806;28;20425;-58
2023/03/30 08:07:31;;;;;;;2.50;0.70;;;13.00;99.90;;;;;;5090333;28;20432;-57
2023/03/30 08:09:58;;;;;;;1.80;0.70;;;12.90;99.90;;;;;;5091639;28;20437;-58
2023/03/30 08:12:26;;;;;;;1.92;0.75;;;12.90;99.90;;;;;;5099030;28;20567;-58
2023/03/30 08:14:54;;;;;;;2.33;0.75;;;12.90;99.90;;;;;;5092030;28;20435;-58
2023/03/30 08:17:21;;;;;;;1.90;0.80;;;13.00;99.90;;;;;;5092315;28;20430;-58
2023/03/30 08:19:50;;;;;;;1.95;0.80;;;12.90;99.90;;;;;;5092319;28;20425;-57
2023/03/30 08:22:17;;;;;;;2.40;0.80;;;12.90;99.90;;;;;;5110641;28;20781;-57
2023/03/30 08:24:44;;;;;;;1.55;0.70;;;12.90;99.90;;;;;;5109573;28;20461;-57
2023/03/30 08:27:12;;;;;;;1.40;0.88;;;13.00;99.90;;;;;;5109585;28;21058;-57
2023/03/30 08:29:39;;;;;;;4.10;0.80;;;13.00;99.90;;;;;;5101905;28;20483;-57
2023/03/30 08:32:06;;;;;;;1.75;0.60;;;13.10;99.90;;;;;;5089338;28;20435;-57
2023/03/30 08:34:34;;;;;;;2.50;0.63;;;13.10;99.90;;;;;;5090565;28;20443;-58
2023/03/30 08:37:06;;;;;;;1.52;0.60;;;13.10;99.90;;;;;;5095089;28;20456;-58
2023/03/30 08:39:36;;;;;;;1.25;0.60;;;13.10;99.90;;;;;;5113957;28;20426;-58
2023/03/30 08:42:16;;;;;;;1.80;0.80;;;13.20;99.90;;;;;;5114786;28;20400;-57
2023/03/30 08:44:46;;;;;;;2.50;0.60;;;13.30;99.90;;;;;;5115605;28;20432;-58
2023/03/30 08:47:19;;;;;;;2.15;0.70;;;13.20;99.90;;;;;;5115046;28;20764;-58
2023/03/30 08:49:56;;;;;;;2.10;0.70;;;13.10;99.90;;;;;;5112217;28;20488;-58
2023/03/30 08:52:26;;;;;;;3.00;0.80;;;13.00;99.90;;;;;;5114783;28;20844;-58
2023/03/30 08:54:53;;;;;;;2.90;0.70;;;12.90;99.90;;;;;;5115677;28;20804;-58
2023/03/30 08:57:36;;;;;;;2.47;0.70;;;12.80;99.90;;;;;;5114148;28;20461;-58
2023/03/30 09:00:13;;;;;;;2.90;0.70;;;12.70;99.90;;;;;;5113452;28;20420;-58
2023/03/30 09:02:44;;;;;;;1.67;0.77;;;12.70;99.90;;;;;;5113538;28;20409;-58
2023/03/30 09:05:21;;;;;;;1.75;0.80;;;12.70;99.90;;;;;;5114395;28;20467;-58
2023/03/30 09:07:56;;;;;;;3.90;0.70;;;12.60;99.90;;;;;;5107783;28;20504;-58
2023/03/30 09:10:26;;;;;;;1.40;0.70;;;12.60;99.90;;;;;;5107451;28;20444;-58
2023/03/30 09:12:57;;;;;;;1.37;0.70;;;12.60;99.90;;;;;;5114011;28;20424;-58
2023/03/30 09:15:28;;;;;;;1.45;0.60;;;12.70;99.90;;;;;;5114460;28;20526;-58
2023/03/30 09:18:00;;;;;;;1.90;0.60;;;12.70;99.90;;;;;;5094609;28;20483;-58
2023/03/30 09:20:30;;;;;;;1.20;0.50;;;12.80;99.90;;;;;;5093625;28;20430;-59
2023/03/30 09:23:01;;;;;;;1.83;0.60;;;12.80;99.90;;;;;;5093076;28;20806;-58
2023/03/30 09:25:34;;;;;;;1.30;0.60;;;12.80;99.90;;;;;;5095570;28;20889;-59
2023/03/30 09:28:08;;;;;;;0.82;0.50;;;12.80;99.90;;;;;;5096576;28;20461;-59
2023/03/30 09:30:40;;;;;;;1.40;0.50;;;12.90;99.90;;;;;;5092929;28;20417;-59
2023/03/30 09:33:18;;;;;;;2.10;0.60;;;13.00;99.90;;;;;;5092010;28;20426;-60
2023/03/30 09:35:59;;;;;;;2.90;0.60;;;13.00;99.90;;;;;;5100913;28;20867;-60
2023/03/30 09:38:31;;;;;;;1.10;0.50;;;13.10;99.90;;;;;;5109298;28;20495;-61
2023/03/30 09:41:11;;;;;;;1.10;0.60;;;13.30;99.90;;;;;;5113546;28;20927;-60
2023/03/30 09:43:43;;;;;;;1.20;0.60;;;13.20;99.90;;;;;;5112791;28;20494;-60
2023/03/30 09:46:11;;;;;;;1.02;0.60;;;13.30;99.90;;;;;;5112184;28;20515;-60
2023/03/30 09:48:40;;;;;;;0.90;0.50;;;13.30;99.90;;;;;;5108160;28;20879;-60
2023/03/30 09:51:19;;;;;;;2.47;0.60;;;13.30;99.90;;;;;;5092485;28;20838;-60
2023/03/30 09:53:50;;;;;;;2.38;0.50;;;13.30;99.90;;;;;;5094223;28;20418;-61
2023/03/30 09:56:21;;;;;;;2.80;0.70;;;13.40;99.90;;;;;;5092128;28;20425;-60
2023/03/30 09:58:49;;;;;;;1.58;0.60;;;13.50;99.90;;;;;;5096963;28;20832;-61
2023/03/30 10:01:18;;;;;;;0.90;0.60;;;13.40;99.90;;;;;;5096782;28;20421;-60
2023/03/30 10:04:07;;;;;;;1.10;0.57;;;13.40;99.90;;;;;;5104034;28;20740;-61
2023/03/30 10:06:39;;;;;;;1.10;0.50;;;13.40;99.90;;;;;;5095651;28;20506;-61
2023/03/30 10:09:12;;;;;;;1.75;0.90;;;13.50;99.90;;;;;;5099336;28;20424;-60
2023/03/30 10:11:43;;;;;;;1.85;0.60;;;13.70;99.90;;;;;;5093952;28;20426;-61
2023/03/30 10:14:30;;;;;;;1.15;0.60;;;14.00;99.90;;;;;;5108470;28;20948;-61
2023/03/30 10:16:58;;;;;;;2.00;0.70;;;14.20;99.90;;;;;;5111126;28;20411;-61
2023/03/30 10:19:26;;;;;;;1.08;0.60;;;14.30;99.90;;;;;;5111725;28;20832;-62
2023/03/30 10:21:56;;;;;;;1.15;0.60;;;14.60;99.90;;;;;;5110521;28;20475;-62
2023/03/30 10:24:28;;;;;;;1.38;0.55;;;14.70;99.90;;;;;;5111886;28;20899;-61
2023/03/30 10:26:57;;;;;;;2.40;0.60;;;14.70;99.90;;;;;;5112332;28;20416;-61
2023/03/30 10:29:28;;;;;;;1.35;0.70;;;14.70;99.90;;;;;;5114013;28;20459;-61
2023/03/30 10:32:00;;;;;;;1.70;0.70;;;14.80;99.90;;;;;;5111659;28;20522;-61
2023/03/30 10:34:37;;;;;;;1.30;0.70;;;14.70;99.90;;;;;;5109078;28;20420;-61
2023/03/30 10:37:09;;;;;;;2.50;0.70;;;14.50;99.90;;;;;;5110905;28;20506;-61
2023/03/30 10:39:40;;;;;;;1.70;0.70;;;14.50;99.90;;;;;;5113057;28;20511;-61
2023/03/30 10:42:11;;;;;;;1.48;0.70;;;14.40;99.90;;;;;;5108794;28;20420;-60
2023/03/30 10:44:45;;;;;;;1.30;0.60;;;14.30;99.90;;;;;;5098499;28;20958;-62
2023/03/30 10:47:29;;;;;;;1.10;0.70;;;14.30;99.90;;;;;;5091071;28;20865;-61
2023/03/30 10:50:03;;;;;;;2.20;0.70;;;14.40;99.90;;;;;;5091033;28;20744;-60
2023/03/30 10:52:36;;;;;;;0.85;0.60;;;14.50;99.90;;;;;;5089757;28;20577;-60
2023/03/30 10:55:11;;;;;;;1.80;0.60;;;14.40;99.90;;;;;;5091633;28;20464;-60
2023/03/30 10:57:47;;;;;;;1.10;0.60;;;14.50;99.90;;;;;;5090177;28;20440;-60
2023/03/30 11:00:31;;;;;;;1.70;0.70;;;14.40;99.90;;;;;;5112845;28;20522;-61
2023/03/30 11:03:08;;;;;;;1.10;0.60;;;14.50;99.90;;;;;;5105344;28;20470;-61
2023/03/30 11:05:38;;;;;;;1.20;0.70;;;14.60;99.90;;;;;;5109863;28;20523;-60
2023/03/30 11:08:11;;;;;;;1.55;0.60;;;14.60;99.90;;;;;;5111016;28;20499;-61
2023/03/30 11:10:42;;;;;;;1.40;0.60;;;14.60;99.90;;;;;;5111973;28;20428;-61
2023/03/30 11:13:15;;;;;;;1.60;0.60;;;14.70;99.90;;;;;;5093094;28;20470;-60
2023/03/30 11:15:49;;;;;;;1.90;0.70;;;14.70;99.90;;;;;;5092468;28;20804;-60
2023/03/30 11:18:21;;;;;;;1.40;0.60;;;14.80;99.90;;;;;;5112391;28;20466;-60
2023/03/30 11:20:55;;;;;;;2.00;0.70;;;15.00;99.90;;;;;;5109358;28;20427;-60
2023/03/30 11:23:30;;;;;;;1.55;0.70;;;14.90;99.90;;;;;;5110439;28;20450;-60
2023/03/30 11:26:03;;;;;;;2.00;0.80;;;15.00;99.90;;;;;;5111131;28;20716;-60
2023/03/30 11:28:56;;;;;;;1.30;0.60;;;15.10;99.90;;;;;;5097442;28;20423;-60
2023/03/30 11:31:38;;;;;;;1.30;0.60;;;15.30;99.90;;;;;;5109692;28;20436;-62
2023/03/30 11:34:16;;;;;;;1.30;0.70;;;15.40;99.90;;;;;;5106091;28;20485;-61
2023/03/30 11:36:48;;;;;;;1.45;0.60;;;15.40;99.90;;;;;;5110823;28;20522;-60
2023/03/30 11:39:18;;;;;;;2.53;0.70;;;15.40;99.90;;;;;;5101456;28;20855;-60
2023/03/30 11:41:53;;;;;;;2.17;0.60;;;15.60;99.90;;;;;;5093143;28;20434;-61
2023/03/30 11:44:20;;;;;;;2.03;0.60;;;15.80;99.90;;;;;;5092081;28;20434;-61
2023/03/30 11:46:55;;;;;;;1.60;0.60;;;15.90;99.90;;;;;;5096527;28;20461;-61
2023/03/30 11:49:52;;;;;;;2.20;0.60;;;15.90;99.90;;;;;;5089808;28;20440;-62
2023/03/30 11:52:30;;;;;;;1.70;0.65;;;15.80;99.90;;;;;;5097895;28;20434;-62
2023/03/30 11:55:28;;;;;;;1.20;0.60;;;15.90;99.90;;;;;;5095515;28;20426;-62
2023/03/30 11:58:06;;;;;;;1.60;0.80;;;15.90;99.90;;;;;;5091525;28;20482;-63
2023/03/30 12:00:51;;;;;;;1.10;0.70;;;15.80;99.90;;;;;;5101621;28;20420;-62
2023/03/30 12:03:34;;;;;;;1.13;0.90;;;15.90;99.90;;;;;;5109805;28;20522;-63
2023/03/30 12:06:13;;;;;;;1.70;0.70;;;16.10;99.90;;;;;;5089980;28;20916;-61
2023/03/30 12:09:00;;;;;;;1.50;0.55;;;16.00;99.90;;;;;;5090767;28;20433;-62
2023/03/30 12:11:35;;;;;;;1.30;0.60;;;15.90;99.90;;;;;;5081629;28;20650;-61
2023/03/30 12:14:14;;;;;;;1.40;0.60;;;15.90;99.90;;;;;;5099307;28;20421;-64
2023/03/30 12:16:46;;;;;;;2.03;0.60;;;16.00;99.90;;;;;;5101400;28;20449;-61
2023/03/30 12:19:19;;;;;;;1.80;0.70;;;16.20;99.90;;;;;;5096355;28;20889;-63
2023/03/30 12:21:53;;;;;;;2.08;0.70;;;15.90;99.90;;;;;;5096544;28;20520;-64
2023/03/30 12:24:25;;;;;;;1.00;0.70;;;15.80;99.90;;;;;;5096768;28;20424;-63
2023/03/30 12:26:53;;;;;;;2.40;0.90;;;15.60;99.90;;;;;;5096955;28;20426;-61
2023/03/30 12:29:21;;;;;;;1.50;0.63;;;15.60;99.90;;;;;;5097560;28;20748;-62
2023/03/30 12:32:06;;;;;;;1.77;0.70;;;15.60;99.90;;;;;;5096321;28;20434;-63
2023/03/30 12:34:35;;;;;;;2.00;0.70;;;15.70;99.90;;;;;;5094432;28;20921;-61
2023/03/30 12:37:08;;;;;;;2.22;0.80;;;15.90;99.90;;;;;;5097871;28;20430;-63
2023/03/30 12:39:43;;;;;;;1.30;0.70;;;16.10;99.90;;;;;;5102505;28;20421;-62
2023/03/30 12:42:26;;;;;;;1.20;0.80;;;16.40;99.90;;;;;;5095273;28;20837;-60
2023/03/30 12:45:07;;;;;;;1.60;0.80;;;16.70;99.90;;;;;;5094785;28;20478;-63
2023/03/30 12:47:49;;;;;;;1.80;0.70;;;17.00;99.90;;;;;;5104981;28;20436;-60
2023/03/30 12:50:29;;;;;;;1.40;0.70;;;17.30;99.90;;;;;;5107378;28;20499;-61
2023/03/30 12:53:08;;;;;;;1.70;0.60;;;17.30;99.90;;;;;;5098746;28;20527;-60
2023/03/30 12:55:45;;;;;;;2.17;0.70;;;17.20;99.90;;;;;;5104553;28;20430;-61
2023/03/30 12:58:44;;;;;;;1.45;0.70;;;17.10;99.90;;;;;;5104571;28;20771;-61
2023/03/30 13:01:35;;;;;;;1.50;0.70;;;16.70;99.90;;;;;;5109564;28;20452;-60
2023/03/30 13:04:06;;;;;;;1.25;0.60;;;16.60;99.90;;;;;;5100120;28;20733;-61
2023/03/30 13:06:37;;;;;;;1.20;0.70;;;16.40;99.90;;;;;;5113716;28;20428;-60
2023/03/30 13:09:32;;;;;;;1.33;0.60;;;16.60;99.90;;;;;;5101978;28;20418;-60
2023/03/30 13:12:31;;;;;;;1.83;0.60;;;16.90;99.90;;;;;;5094508;28;20426;-59